Time;durP1;ratioP1;P1;durP2;ratioP2;P2;SDS_P1;SDS_P2;PMS_P1;PMS_P2;Temp;Humidity;BMP_temperature;BMP_pressure;BME280_temperature;BME280_humidity;BME280_pressure;Samples;Min_cycle;Max_cycle;Signal;HPM_P1;HPM_P2
2022/07/03 00:00:00;;;;;;;;;;;;;;;;;;4909234;29;19945;-87
2022/07/03 00:02:26;;;;;;;;;;;;;;;;;;4908844;29;20279;-88
2022/07/03 00:04:51;;;;;;;;;;;;;;;;;;4908258;29;19915;-86
2022/07/03 00:07:17;;;;;;;;;;;;;;;;;;4907753;29;19946;-86
2022/07/03 00:09:42;;;;;;;;;;;;;;;;;;4923824;29;19978;-87
2022/07/03 00:12:07;;;;;;;;;;;;;;;;;;4924141;29;19926;-87
2022/07/03 00:14:33;;;;;;;;;;;;;;;;;;4940041;29;19915;-85
2022/07/03 00:16:58;;;;;;;;;;;;;;;;;;4924325;29;19918;-86
2022/07/03 00:19:24;;;;;;;;;;;;;;;;;;4907470;29;19922;-86
2022/07/03 00:21:49;;;;;;;;;;;;;;;;;;4939081;29;19969;-87
2022/07/03 00:24:14;;;;;;;;;;;;;;;;;;4922781;29;19954;-89
2022/07/03 00:26:40;;;;;;;;;;;;;;;;;;4907901;29;19921;-87
2022/07/03 00:29:07;;;;;;;;;;;;;;;;;;4956172;28;20386;-89
2022/07/03 00:31:32;;;;;;;;;;;;;;;;;;4923555;29;19934;-87
2022/07/03 00:33:57;;;;;;;;;;;;;;;;;;4939041;29;20435;-86
2022/07/03 00:36:23;;;;;;;;;;;;;;;;;;4939469;29;19965;-88
2022/07/03 00:38:49;;;;;;;;;;;;;;;;;;4925102;28;20400;-85
2022/07/03 00:41:14;;;;;;;;;;;;;;;;;;4941348;29;19920;-89
2022/07/03 00:43:40;;;;;;;;;;;;;;;;;;4926562;29;20006;-86
2022/07/03 00:46:05;;;;;;;;;;;;;;;;;;4923233;29;19972;-89
2022/07/03 00:48:31;;;;;;;;;;;;;;;;;;4907822;28;19914;-89
2022/07/03 00:50:56;;;;;;;;;;;;;;;;;;4938468;29;20005;-88
2022/07/03 00:53:21;;;;;;;;;;;;;;;;;;4922874;29;19910;-87
2022/07/03 00:55:47;;;;;;;;;;;;;;;;;;4922955;29;19914;-88
2022/07/03 00:58:12;;;;;;;;;;;;;;;;;;4939397;29;19918;-87
2022/07/03 01:00:38;;;;;;;;;;;;;;;;;;4925673;29;20454;-88
2022/07/03 01:03:03;;;;;;;;;;;;;;;;;;4947043;29;19926;-89
2022/07/03 01:05:29;;;;;;;;;;;;;;;;;;4934457;29;19956;-88
2022/07/03 01:07:54;;;;;;;;;;;;;;;;;;4947971;29;19917;-89
2022/07/03 01:10:19;;;;;;;;;;;;;;;;;;4930396;29;19915;-88
2022/07/03 01:12:45;;;;;;;;;;;;;;;;;;4929877;29;20457;-89
2022/07/03 01:15:11;;;;;;;;;;;;;;;;;;4956161;29;19914;-90
2022/07/03 01:17:36;;;;;;;;;;;;;;;;;;4938517;29;19943;-88
2022/07/03 01:20:02;;;;;;;;;;;;;;;;;;4937875;29;19942;-86
2022/07/03 01:22:27;;;;;;;;;;;;;;;;;;4922097;29;19915;-88
2022/07/03 01:24:52;;;;;;;;;;;;;;;;;;4937448;29;19915;-88
2022/07/03 01:27:18;;;;;;;;;;;;;;;;;;4922115;29;19926;-87
2022/07/03 01:29:43;;;;;;;;;;;;;;;;;;4937987;29;19972;-88
2022/07/03 01:32:09;;;;;;;;;;;;;;;;;;4938947;29;19921;-88
2022/07/03 01:34:35;;;;;;;;;;;;;;;;;;4938759;28;19962;-88
2022/07/03 01:37:00;;;;;;;;;;;;;;;;;;4926462;29;19915;-88
2022/07/03 01:39:25;;;;;;;;;;;;;;;;;;4942378;29;20294;-87
2022/07/03 01:41:51;;;;;;;;;;;;;;;;;;4928101;29;19915;-88
2022/07/03 01:44:16;;;;;;;;;;;;;;;;;;4942097;29;20302;-89
2022/07/03 01:46:45;;;;;;;;;;;;;;;;;;4958036;29;20006;-88
2022/07/03 01:49:10;;;;;;;;;;;;;;;;;;4958383;28;19914;-88
2022/07/03 01:51:36;;;;;;;;;;;;;;;;;;4958361;29;19915;-88
2022/07/03 01:54:01;;;;;;;;;;;;;;;;;;4925161;29;20279;-89
2022/07/03 01:56:27;;;;;;;;;;;;;;;;;;4940776;29;19921;-88
2022/07/03 01:58:52;;;;;;;;;;;;;;;;;;4957662;28;19921;-87
2022/07/03 02:01:17;;;;;;;;;;;;;;;;;;4924735;29;19937;-87
2022/07/03 02:03:43;;;;;;;;;;;;;;;;;;4924677;29;20342;-89
2022/07/03 02:06:09;;;;;;;;;;;;;;;;;;4940942;29;19915;-87
2022/07/03 02:08:34;;;;;;;;;;;;;;;;;;4940573;28;20275;-88
2022/07/03 02:11:00;;;;;;;;;;;;;;;;;;4923833;29;20485;-87
2022/07/03 02:13:25;;;;;;;;;;;;;;;;;;4925016;29;19914;-87
2022/07/03 02:15:51;;;;;;;;;;;;;;;;;;4924472;29;20027;-87
2022/07/03 02:18:17;;;;;;;;;;;;;;;;;;4956876;29;19918;-86
2022/07/03 02:20:42;;;;;;;;;;;;;;;;;;4940305;29;19915;-86
2022/07/03 02:23:08;;;;;;;;;;;;;;;;;;4940696;29;19915;-86
2022/07/03 02:25:33;;;;;;;;;;;;;;;;;;4924793;29;20298;-87
2022/07/03 02:27:58;;;;;;;;;;;;;;;;;;4925102;29;19914;-88
2022/07/03 02:30:24;;;;;;;;;;;;;;;;;;4940812;29;20271;-88
2022/07/03 02:32:49;;;;;;;;;;;;;;;;;;4925114;29;19914;-89
2022/07/03 02:35:15;;;;;;;;;;;;;;;;;;4940903;29;20288;-87
2022/07/03 02:37:40;;;;;;;;;;;;;;;;;;4958078;29;19926;-88
2022/07/03 02:40:06;;;;;;;;;;;;;;;;;;4925582;29;19914;-88
2022/07/03 02:42:31;;;;;;;;;;;;;;;;;;4942177;29;19914;-87
2022/07/03 02:44:57;;;;;;;;;;;;;;;;;;4926475;29;20305;-88
2022/07/03 02:47:22;;;;;;;;;;;;;;;;;;4940551;29;19915;-87
2022/07/03 02:49:51;;;;;;;;;;;;;;;;;;4926278;29;19914;-87
2022/07/03 02:52:16;;;;;;;;;;;;;;;;;;4958540;29;19922;-88
2022/07/03 02:54:41;;;;;;;;;;;;;;;;;;4941752;29;19910;-89
2022/07/03 02:57:07;;;;;;;;;;;;;;;;;;4957629;29;19922;-87
2022/07/03 02:59:32;;;;;;;;;;;;;;;;;;4924555;29;20012;-87
2022/07/03 03:01:58;;;;;;;;;;;;;;;;;;4940843;29;20009;-87
2022/07/03 03:04:23;;;;;;;;;;;;;;;;;;4940195;29;19915;-89
2022/07/03 03:06:48;;;;;;;;;;;;;;;;;;4939848;29;20263;-87
2022/07/03 03:09:14;;;;;;;;;;;;;;;;;;4952911;23;19930;-86
2022/07/03 03:11:39;;;;;;;;;;;;;;;;;;4961096;28;19918;-86
2022/07/03 03:14:05;;;;;;;;;;;;;;;;;;4961392;28;20405;-88
2022/07/03 03:16:30;;;;;;;;;;;;;;;;;;4977950;28;20293;-87
2022/07/03 03:18:56;;;;;;;;;;;;;;;;;;4960080;28;19929;-88
2022/07/03 03:21:22;;;;;;;;;;;;;;;;;;4947719;28;20365;-89
2022/07/03 03:23:51;;;;;;;;;;;;;;;;;;4984687;28;19914;-87
2022/07/03 03:26:19;;;;;;;;;;;;;;;;;;4963703;28;19914;-88
2022/07/03 03:28:47;;;;;;;;;;;;;;;;;;4981360;28;20026;-88
2022/07/03 03:31:13;;;;;;;;;;;;;;;;;;4962722;28;19922;-88
2022/07/03 03:33:41;;;;;;;;;;;;;;;;;;4962423;28;20282;-87
2022/07/03 03:36:07;;;;;;;;;;;;;;;;;;4961340;28;19945;-87
2022/07/03 03:38:33;;;;;;;;;;;;;;;;;;4976896;28;19939;-88
2022/07/03 03:41:00;;;;;;;;;;;;;;;;;;4976368;28;19925;-88
2022/07/03 03:43:26;;;;;;;;;;;;;;;;;;4959189;28;20293;-88
2022/07/03 03:45:51;;;;;;;;;;;;;;;;;;4976115;28;19914;-89
2022/07/03 03:48:17;;;;;;;;;;;;;;;;;;4976209;28;20377;-88
2022/07/03 03:50:43;;;;;;;;;;;;;;;;;;4975794;28;19922;-88
2022/07/03 03:53:08;;;;;;;;;;;;;;;;;;4976983;28;20046;-88
2022/07/03 03:55:34;;;;;;;;;;;;;;;;;;4975897;28;20386;-89
2022/07/03 03:58:01;;;;;;;;;;;;;;;;;;4975432;28;19922;-89
2022/07/03 04:00:27;;;;;;;;;;;;;;;;;;4975712;28;19918;-87
2022/07/03 04:02:52;;;;;;;;;;;;;;;;;;4942517;28;19961;-89
2022/07/03 04:05:17;;;;;;;;;;;;;;;;;;4926787;28;19915;-88
2022/07/03 04:07:43;;;;;;;;;;;;;;;;;;4926536;28;19914;-90
2022/07/03 04:10:08;;;;;;;;;;;;;;;;;;4958250;28;19918;-89
2022/07/03 04:12:34;;;;;;;;;;;;;;;;;;4941866;28;19953;-88
2022/07/03 04:14:59;;;;;;;;;;;;;;;;;;4942059;28;19921;-88
2022/07/03 04:17:25;;;;;;;;;;;;;;;;;;4926113;28;19914;-89
2022/07/03 04:19:50;;;;;;;;;;;;;;;;;;4941567;28;19914;-88
2022/07/03 04:22:15;;;;;;;;;;;;;;;;;;4926340;28;19937;-88
2022/07/03 04:24:41;;;;;;;;;;;;;;;;;;4957448;28;19922;-88
2022/07/03 04:27:06;;;;;;;;;;;;;;;;;;4942234;28;19997;-89
2022/07/03 04:29:32;;;;;;;;;;;;;;;;;;4941598;28;19922;-88
2022/07/03 04:31:57;;;;;;;;;;;;;;;;;;4928057;28;19937;-88
2022/07/03 04:34:23;;;;;;;;;;;;;;;;;;4975045;28;20435;-88
2022/07/03 04:36:49;;;;;;;;;;;;;;;;;;4941891;28;19915;-89
2022/07/03 04:39:14;;;;;;;;;;;;;;;;;;4941538;28;21308;-87
2022/07/03 04:41:40;;;;;;;;;;;;;;;;;;4941478;28;20437;-89
2022/07/03 04:44:05;;;;;;;;;;;;;;;;;;4941698;28;19914;-88
2022/07/03 04:46:30;;;;;;;;;;;;;;;;;;4941520;28;19977;-90
2022/07/03 04:48:56;;;;;;;;;;;;;;;;;;4974525;28;20009;-89
2022/07/03 04:51:21;;;;;;;;;;;;;;;;;;4942004;28;19914;-89
2022/07/03 04:53:47;;;;;;;;;;;;;;;;;;4941459;28;19921;-89
2022/07/03 04:56:12;;;;;;;;;;;;;;;;;;4941609;28;19921;-89
2022/07/03 04:58:37;;;;;;;;;;;;;;;;;;4957699;28;19926;-88
2022/07/03 05:01:03;;;;;;;;;;;;;;;;;;4957362;28;20333;-89
2022/07/03 05:03:28;;;;;;;;;;;;;;;;;;4942409;28;19914;-87
2022/07/03 05:05:53;;;;;;;;;;;;;;;;;;4941490;28;19926;-89
2022/07/03 05:08:20;;;;;;;;;;;;;;;;;;4941048;28;20006;-87
2022/07/03 05:10:45;;;;;;;;;;;;;;;;;;4942602;28;20018;-87
2022/07/03 05:13:11;;;;;;;;;;;;;;;;;;4926859;28;19914;-89
2022/07/03 05:15:36;;;;;;;;;;;;;;;;;;4958201;28;19961;-88
2022/07/03 05:18:01;;;;;;;;;;;;;;;;;;4959784;28;19925;-87
2022/07/03 05:20:30;;;;;;;;;;;;;;;;;;4960339;28;20301;-88
2022/07/03 05:22:55;;;;;;;;;;;;;;;;;;4943644;28;20012;-89
2022/07/03 05:25:21;;;;;;;;;;;;;;;;;;4943743;28;19961;-88
2022/07/03 05:27:46;;;;;;;;;;;;;;;;;;4943987;28;19911;-87
2022/07/03 05:30:11;;;;;;;;;;;;;;;;;;4943463;28;20343;-88
2022/07/03 05:32:37;;;;;;;;;;;;;;;;;;4959320;28;19914;-87
2022/07/03 05:35:02;;;;;;;;;;;;;;;;;;4943053;28;20385;-89
2022/07/03 05:37:28;;;;;;;;;;;;;;;;;;4959094;28;19921;-88
2022/07/03 05:39:54;;;;;;;;;;;;;;;;;;4942794;28;19934;-88
2022/07/03 05:42:19;;;;;;;;;;;;;;;;;;4959991;28;19914;-89
2022/07/03 05:44:44;;;;;;;;;;;;;;;;;;4942676;28;20329;-88
2022/07/03 05:47:10;;;;;;;;;;;;;;;;;;4956879;28;20278;-87
2022/07/03 05:49:35;;;;;;;;;;;;;;;;;;4925820;28;19914;-88
2022/07/03 05:52:00;;;;;;;;;;;;;;;;;;4941793;28;19918;-89
2022/07/03 05:54:28;;;;;;;;;;;;;;;;;;4942303;28;22413;-88
2022/07/03 05:56:53;;;;;;;;;;;;;;;;;;4926111;28;19946;-88
2022/07/03 05:59:18;;;;;;;;;;;;;;;;;;4926658;28;19924;-88
2022/07/03 06:01:44;;;;;;;;;;;;;;;;;;4957990;28;19965;-87
2022/07/03 06:04:09;;;;;;;;;;;;;;;;;;4958175;28;20289;-88
2022/07/03 06:06:34;;;;;;;;;;;;;;;;;;4974832;28;19915;-88
2022/07/03 06:09:00;;;;;;;;;;;;;;;;;;4941633;28;20017;-88
2022/07/03 06:11:25;;;;;;;;;;;;;;;;;;4957514;28;19918;-88
2022/07/03 06:13:51;;;;;;;;;;;;;;;;;;4941688;28;19914;-89
2022/07/03 06:16:16;;;;;;;;;;;;;;;;;;4957404;28;19914;-88
2022/07/03 06:18:41;;;;;;;;;;;;;;;;;;4925509;28;19925;-88
2022/07/03 06:21:07;;;;;;;;;;;;;;;;;;4974955;28;19910;-88
2022/07/03 06:23:32;;;;;;;;;;;;;;;;;;4929329;28;19918;-87
2022/07/03 06:25:58;;;;;;;;;;;;;;;;;;4944945;28;20356;-89
2022/07/03 06:28:23;;;;;;;;;;;;;;;;;;4929172;28;19922;-89
2022/07/03 06:30:48;;;;;;;;;;;;;;;;;;4961085;28;19914;-87
2022/07/03 06:33:14;;;;;;;;;;;;;;;;;;4929285;28;19921;-90
2022/07/03 06:35:39;;;;;;;;;;;;;;;;;;4929219;28;20381;-89
2022/07/03 06:38:05;;;;;;;;;;;;;;;;;;4947671;28;19964;-88
2022/07/03 06:40:30;;;;;;;;;;;;;;;;;;4982263;28;20278;-88
2022/07/03 06:42:56;;;;;;;;;;;;;;;;;;4952403;28;19910;-88
2022/07/03 06:45:21;;;;;;;;;;;;;;;;;;4971487;28;19914;-88
2022/07/03 06:47:47;;;;;;;;;;;;;;;;;;4973403;28;19920;-89
2022/07/03 06:50:15;;;;;;;;;;;;;;;;;;4979502;28;19921;-87
2022/07/03 06:52:41;;;;;;;;;;;;;;;;;;4980208;28;19914;-89
2022/07/03 06:55:06;;;;;;;;;;;;;;;;;;4961831;28;20332;-87
2022/07/03 06:57:32;;;;;;;;;;;;;;;;;;4974267;28;20266;-90
2022/07/03 06:59:57;;;;;;;;;;;;;;;;;;4969233;28;19914;-89
2022/07/03 07:02:23;;;;;;;;;;;;;;;;;;4956494;28;19921;-88
2022/07/03 07:04:48;;;;;;;;;;;;;;;;;;4972659;28;20009;-89
2022/07/03 07:07:13;;;;;;;;;;;;;;;;;;4948068;28;19918;-90
2022/07/03 07:09:39;;;;;;;;;;;;;;;;;;4963015;28;19946;-88
2022/07/03 07:12:04;;;;;;;;;;;;;;;;;;4961923;28;19921;-88
2022/07/03 07:14:29;;;;;;;;;;;;;;;;;;4945457;28;20045;-89
2022/07/03 07:16:55;;;;;;;;;;;;;;;;;;4943832;28;19918;-87
2022/07/03 07:19:20;;;;;;;;;;;;;;;;;;4954646;28;19918;-89
2022/07/03 07:21:46;;;;;;;;;;;;;;;;;;4967432;28;19914;-88
2022/07/03 07:24:11;;;;;;;;;;;;;;;;;;4938397;28;19946;-88
2022/07/03 07:26:37;;;;;;;;;;;;;;;;;;4954737;28;20274;-89
2022/07/03 07:29:02;;;;;;;;;;;;;;;;;;4945852;28;20046;-89
2022/07/03 07:31:28;;;;;;;;;;;;;;;;;;4967278;28;19965;-89
2022/07/03 07:33:53;;;;;;;;;;;;;;;;;;4950843;28;20281;-90
2022/07/03 07:36:19;;;;;;;;;;;;;;;;;;4962033;28;19925;-87
2022/07/03 07:38:44;;;;;;;;;;;;;;;;;;4928619;28;20038;-88
2022/07/03 07:41:10;;;;;;;;;;;;;;;;;;4928849;28;19914;-89
2022/07/03 07:43:35;;;;;;;;;;;;;;;;;;4945142;28;19964;-87
2022/07/03 07:46:01;;;;;;;;;;;;;;;;;;4945250;28;20009;-89
2022/07/03 07:48:26;;;;;;;;;;;;;;;;;;4928928;28;19914;-88
2022/07/03 07:50:53;;;;;;;;;;;;;;;;;;4946010;28;20366;-88
2022/07/03 07:53:18;;;;;;;;;;;;;;;;;;4930591;28;19968;-88
2022/07/03 07:55:44;;;;;;;;;;;;;;;;;;4944798;28;19960;-90
2022/07/03 07:58:09;;;;;;;;;;;;;;;;;;4959767;28;19924;-87
2022/07/03 08:00:35;;;;;;;;;;;;;;;;;;4930346;28;19919;-89
2022/07/03 08:05:47;;;;;;;;;;;;;;;;;;4959857;28;20377;-87
2022/07/03 08:08:12;;;;;;;;;;;;;;;;;;4928752;28;19914;-89
2022/07/03 08:10:38;;;;;;;;;;;;;;;;;;4928939;28;20365;-88
2022/07/03 08:13:04;;;;;;;;;;;;;;;;;;4930024;28;19918;-89
2022/07/03 08:15:29;;;;;;;;;;;;;;;;;;4943262;28;19968;-88
2022/07/03 08:17:55;;;;;;;;;;;;;;;;;;4927473;28;20005;-88
2022/07/03 08:20:21;;;;;;;;;;;;;;;;;;4927266;28;19957;-87
2022/07/03 08:22:46;;;;;;;;;;;;;;;;;;4943153;28;19914;-88
2022/07/03 08:25:11;;;;;;;;;;;;;;;;;;4943028;28;19914;-88
2022/07/03 08:27:37;;;;;;;;;;;;;;;;;;4942826;28;20266;-88
2022/07/03 08:30:02;;;;;;;;;;;;;;;;;;4943021;28;19924;-89
2022/07/03 08:32:28;;;;;;;;;;;;;;;;;;4927100;28;20428;-88
2022/07/03 08:34:53;;;;;;;;;;;;;;;;;;4959440;28;20144;-87
2022/07/03 08:37:18;;;;;;;;;;;;;;;;;;4959987;28;19913;-89
2022/07/03 08:39:44;;;;;;;;;;;;;;;;;;4943029;28;20419;-87
2022/07/03 08:42:09;;;;;;;;;;;;;;;;;;4958889;28;19914;-89
2022/07/03 08:44:34;;;;;;;;;;;;;;;;;;4942917;28;20374;-88
2022/07/03 08:47:00;;;;;;;;;;;;;;;;;;4958036;28;19914;-88
2022/07/03 08:49:25;;;;;;;;;;;;;;;;;;4928897;28;20288;-88
2022/07/03 08:51:51;;;;;;;;;;;;;;;;;;4930084;28;19914;-88
2022/07/03 08:54:16;;;;;;;;;;;;;;;;;;4947397;28;19917;-90
2022/07/03 08:56:42;;;;;;;;;;;;;;;;;;4960959;28;19938;-89
2022/07/03 08:59:08;;;;;;;;;;;;;;;;;;4926276;28;19918;-87
2022/07/03 09:01:34;;;;;;;;;;;;;;;;;;4941344;28;19921;-88
2022/07/03 09:03:59;;;;;;;;;;;;;;;;;;4925382;28;19958;-90
2022/07/03 09:06:24;;;;;;;;;;;;;;;;;;4958194;28;20420;-89
2022/07/03 09:08:50;;;;;;;;;;;;;;;;;;4926198;28;19966;-88
2022/07/03 09:11:15;;;;;;;;;;;;;;;;;;4949606;23;19933;-84
2022/07/03 09:13:41;;;;;;;;;;;;;;;;;;4954247;29;19914;-84
2022/07/03 09:16:06;;;;;;;;;;;;;;;;;;4954875;29;20362;-84
2022/07/03 09:18:31;;;;;;;;;;;;;;;;;;4954236;29;20437;-84
2022/07/03 09:20:57;;;;;;;;;;;;;;;;;;4937286;29;19915;-82
2022/07/03 09:23:22;;;;;;;;;;;;;;;;;;4922238;29;19921;-84
2022/07/03 09:25:48;;;;;;;;;;;;;;;;;;4955158;29;19946;-84
2022/07/03 09:28:13;;;;;;;;;;;;;;;;;;4937711;29;20385;-84
2022/07/03 09:30:38;;;;;;;;;;;;;;;;;;4954127;28;19952;-84
2022/07/03 09:33:04;;;;;;;;;;;;;;;;;;4905417;29;19927;-83
2022/07/03 09:35:29;;;;;;;;;;;;;;;;;;4906188;29;19922;-84
2022/07/03 09:37:54;;;;;;;;;;;;;;;;;;4905658;29;20267;-84
2022/07/03 09:40:20;;;;;;;;;;;;;;;;;;4905244;29;19946;-84
2022/07/03 09:42:45;;;;;;;;;;;;;;;;;;4922463;29;20013;-83
2022/07/03 09:45:11;;;;;;;;;;;;;;;;;;4923301;29;19966;-83
2022/07/03 09:47:36;;;;;;;;;;;;;;;;;;4941010;29;20267;-83
2022/07/03 09:50:04;;;;;;;;;;;;;;;;;;4939168;29;20376;-83
2022/07/03 09:52:29;;;;;;;;;;;;;;;;;;4974755;28;19923;-83
2022/07/03 09:54:55;;;;;;;;;;;;;;;;;;4971462;29;19969;-83
2022/07/03 09:57:22;;;;;;;;;;;;;;;;;;4976568;28;19895;-83
2022/07/03 09:59:48;;;;;;;;;;;;;;;;;;4977764;28;19998;-83
2022/07/03 10:02:13;;;;;;;;;;;;;;;;;;4964812;29;19958;-81
2022/07/03 10:04:38;;;;;;;;;;;;;;;;;;4960077;29;19915;-83
2022/07/03 10:07:04;;;;;;;;;;;;;;;;;;4959305;29;19915;-83
2022/07/03 10:09:29;;;;;;;;;;;;;;;;;;4943390;28;19915;-83
2022/07/03 10:11:55;;;;;;;;;;;;;;;;;;4909483;29;19965;-83
2022/07/03 10:14:21;;;;;;;;;;;;;;;;;;4957958;29;19923;-83
2022/07/03 10:16:46;;;;;;;;;;;;;;;;;;4940732;29;19914;-82
2022/07/03 10:19:11;;;;;;;;;;;;;;;;;;4940807;29;20368;-82
2022/07/03 10:21:37;;;;;;;;;;;;;;;;;;4940579;29;19915;-85
2022/07/03 10:24:06;;;;;;;;;;;;;;;;;;4909687;29;19915;-83
2022/07/03 10:26:31;;;;;;;;;;;;;;;;;;4909479;29;19914;-84
2022/07/03 10:28:57;;;;;;;;;;;;;;;;;;4910966;29;19921;-84
2022/07/03 10:31:22;;;;;;;;;;;;;;;;;;4924706;29;19973;-84
2022/07/03 10:33:48;;;;;;;;;;;;;;;;;;4921923;29;19915;-83
2022/07/03 10:36:13;;;;;;;;;;;;;;;;;;4925547;29;19942;-83
2022/07/03 10:38:42;;;;;;;;;;;;;;;;;;4910235;29;20325;-84
2022/07/03 10:46:36;;;;;;;;;;;;;;;;;;4940522;29;19915;-84
2022/07/03 10:49:02;;;;;;;;;;;;;;;;;;4909310;29;19918;-85
2022/07/03 10:51:28;;;;;;;;;;;;;;;;;;4940108;29;19914;-84
2022/07/03 10:53:54;;;;;;;;;;;;;;;;;;4940605;29;19914;-83
2022/07/03 10:56:19;;;;;;;;;;;;;;;;;;4908551;29;20285;-84
2022/07/03 10:58:45;;;;;;;;;;;;;;;;;;4923969;29;19918;-86
2022/07/03 11:01:10;;;;;;;;;;;;;;;;;;4908609;29;20370;-85
2022/07/03 11:03:35;;;;;;;;;;;;;;;;;;4940550;29;19954;-85
2022/07/03 11:06:04;;;;;;;;;;;;;;;;;;4909238;29;19981;-84
2022/07/03 11:08:29;;;;;;;;;;;;;;;;;;4938646;29;19926;-84
2022/07/03 11:11:54;;;;;;;;;;;;;;;;;;4956309;28;19925;-85
2022/07/03 11:13:40;;;;;;;;;;;;;;;;;;4939620;29;19925;-85
2022/07/03 11:16:06;;;;;;;;;;;;;;;;;;4924358;29;20285;-83
2022/07/03 11:18:31;;;;;;;;;;;;;;;;;;4956993;29;19958;-83
2022/07/03 11:20:56;;;;;;;;;;;;;;;;;;4924163;29;19916;-84
2022/07/03 11:23:22;;;;;;;;;;;;;;;;;;4957786;29;19915;-85
2022/07/03 11:25:47;;;;;;;;;;;;;;;;;;4939852;29;20310;-84
2022/07/03 11:28:13;;;;;;;;;;;;;;;;;;4957526;29;20434;-83
2022/07/03 11:30:38;;;;;;;;;;;;;;;;;;4942391;29;19914;-84
2022/07/03 11:33:04;;;;;;;;;;;;;;;;;;4915572;29;19911;-85
2022/07/03 11:35:29;;;;;;;;;;;;;;;;;;4930382;29;19919;-84
2022/07/03 11:37:55;;;;;;;;;;;;;;;;;;4956310;29;19926;-84
2022/07/03 11:40:20;;;;;;;;;;;;;;;;;;4923383;29;19915;-85
2022/07/03 11:42:46;;;;;;;;;;;;;;;;;;4941975;29;19915;-84
2022/07/03 11:45:12;;;;;;;;;;;;;;;;;;4908325;29;19914;-84
2022/07/03 11:47:37;;;;;;;;;;;;;;;;;;4907763;29;19915;-83
2022/07/03 11:50:03;;;;;;;;;;;;;;;;;;4938875;29;19914;-83
2022/07/03 11:52:35;;;;;;;;;;;;;;;;;;4924013;29;19914;-83
2022/07/03 11:55:00;;;;;;;;;;;;;;;;;;4955007;29;20340;-83
2022/07/03 11:57:26;;;;;;;;;;;;;;;;;;4956258;29;20262;-81
2022/07/03 11:59:51;;;;;;;;;;;;;;;;;;4941074;29;19914;-82
2022/07/03 12:02:17;;;;;;;;;;;;;;;;;;4923178;29;19993;-80
2022/07/03 12:04:42;;;;;;;;;;;;;;;;;;4939048;29;19924;-82
2022/07/03 12:07:08;;;;;;;;;;;;;;;;;;4908656;29;19987;-82
2022/07/03 12:09:33;;;;;;;;;;;;;;;;;;4956131;28;19915;-83
2022/07/03 12:12:02;;;;;;;;;;;;;;;;;;4942879;29;19939;-82
2022/07/03 12:14:27;;;;;;;;;;;;;;;;;;4929186;29;19917;-81
2022/07/03 12:16:53;;;;;;;;;;;;;;;;;;4947921;29;20001;-80
2022/07/03 12:19:18;;;;;;;;;;;;;;;;;;4916304;28;19918;-81
2022/07/03 12:21:44;;;;;;;;;;;;;;;;;;4916203;29;20346;-82
2022/07/03 12:24:09;;;;;;;;;;;;;;;;;;4930398;29;19914;-81
2022/07/03 12:26:34;;;;;;;;;;;;;;;;;;4910064;29;19918;-81
2022/07/03 12:29:00;;;;;;;;;;;;;;;;;;4910120;29;20012;-80
2022/07/03 12:31:25;;;;;;;;;;;;;;;;;;4940260;29;20396;-82
2022/07/03 12:33:50;;;;;;;;;;;;;;;;;;4924928;29;19966;-82
2022/07/03 12:36:16;;;;;;;;;;;;;;;;;;4908982;29;19914;-81
2022/07/03 12:38:41;;;;;;;;;;;;;;;;;;4956358;29;19919;-82
2022/07/03 12:41:07;;;;;;;;;;;;;;;;;;4954550;28;20445;-82
2022/07/03 12:43:33;;;;;;;;;;;;;;;;;;4922416;29;19914;-83
2022/07/03 12:45:58;;;;;;;;;;;;;;;;;;4938826;29;19953;-81
2022/07/03 12:48:23;;;;;;;;;;;;;;;;;;4922471;29;20457;-81
2022/07/03 12:50:51;;;;;;;;;;;;;;;;;;4923198;29;19921;-83
2022/07/03 12:53:16;;;;;;;;;;;;;;;;;;4938657;29;20032;-82
2022/07/03 12:55:42;;;;;;;;;;;;;;;;;;4923590;29;20393;-81
2022/07/03 13:00:52;;;;;;;;;;;;;;;;;;4955967;28;20401;-80
2022/07/03 13:03:17;;;;;;;;;;;;;;;;;;4925577;29;19911;-83
2022/07/03 13:05:42;;;;;;;;;;;;;;;;;;4940915;29;20334;-83
2022/07/03 13:08:08;;;;;;;;;;;;;;;;;;4925207;29;19915;-81
2022/07/03 13:10:33;;;;;;;;;;;;;;;;;;4957512;28;20294;-82
2022/07/03 13:12:59;;;;;;;;;;;;;;;;;;4958695;29;19924;-81
2022/07/03 13:15:24;;;;;;;;;;;;;;;;;;4940006;29;20361;-82
2022/07/03 13:17:50;;;;;;;;;;;;;;;;;;4924382;29;20019;-82
2022/07/03 13:20:15;;;;;;;;;;;;;;;;;;4942679;29;20319;-82
2022/07/03 13:22:40;;;;;;;;;;;;;;;;;;4924606;29;19924;-81
2022/07/03 13:25:06;;;;;;;;;;;;;;;;;;4941409;29;20294;-81
2022/07/03 13:27:31;;;;;;;;;;;;;;;;;;4924892;29;19910;-82
2022/07/03 13:29:57;;;;;;;;;;;;;;;;;;4921794;29;19977;-83
2022/07/03 13:32:22;;;;;;;;;;;;;;;;;;4921882;29;19921;-81
2022/07/03 13:34:48;;;;;;;;;;;;;;;;;;4954490;29;19925;-81
2022/07/03 13:37:13;;;;;;;;;;;;;;;;;;4937808;29;20263;-80
2022/07/03 13:39:38;;;;;;;;;;;;;;;;;;4954118;28;19922;-82
2022/07/03 13:42:05;;;;;;;;;;;;;;;;;;4955714;29;20285;-81
2022/07/03 13:44:30;;;;;;;;;;;;;;;;;;4907221;29;19922;-80
2022/07/03 13:46:56;;;;;;;;;;;;;;;;;;4954422;29;20295;-81
2022/07/03 13:49:21;;;;;;;;;;;;;;;;;;4953991;28;19976;-81
2022/07/03 13:51:47;;;;;;;;;;;;;;;;;;4936913;29;20317;-82
2022/07/03 13:54:12;;;;;;;;;;;;;;;;;;4936642;29;19914;-82
2022/07/03 13:56:37;;;;;;;;;;;;;;;;;;4921063;29;19945;-82
2022/07/03 13:59:03;;;;;;;;;;;;;;;;;;4953979;29;19924;-81
2022/07/03 14:01:31;;;;;;;;;;;;;;;;;;4938769;29;19915;-80
2022/07/03 14:03:56;;;;;;;;;;;;;;;;;;4962060;29;19910;-80
2022/07/03 14:06:22;;;;;;;;;;;;;;;;;;4961373;29;20413;-82
2022/07/03 14:08:53;;;;;;;;;;;;;;;;;;4942075;29;19914;-79
2022/07/03 14:11:18;;;;;;;;;;;;;;;;;;4959100;28;20341;-81
2022/07/03 14:13:43;;;;;;;;;;;;;;;;;;4958687;29;19921;-81
2022/07/03 14:16:09;;;;;;;;;;;;;;;;;;4925104;29;19969;-81
2022/07/03 14:18:34;;;;;;;;;;;;;;;;;;4956165;29;19950;-82
2022/07/03 14:21:00;;;;;;;;;;;;;;;;;;4955736;28;20065;-81
2022/07/03 14:23:26;;;;;;;;;;;;;;;;;;4923212;29;19914;-82
2022/07/03 14:25:51;;;;;;;;;;;;;;;;;;4922567;29;19911;-81
2022/07/03 14:33:48;;;;;;;;;;;;;;;;;;4936811;29;19955;-81
2022/07/03 14:36:14;;;;;;;;;;;;;;;;;;4953505;29;19921;-82
2022/07/03 14:38:39;;;;;;;;;;;;;;;;;;4954023;29;19933;-82
2022/07/03 14:41:04;;;;;;;;;;;;;;;;;;4952780;28;19921;-81
2022/07/03 14:43:30;;;;;;;;;;;;;;;;;;4954371;28;19954;-82
2022/07/03 14:45:55;;;;;;;;;;;;;;;;;;4942657;29;19945;-82
2022/07/03 14:48:21;;;;;;;;;;;;;;;;;;4909897;29;19962;-82
2022/07/03 14:50:46;;;;;;;;;;;;;;;;;;4939901;29;19946;-81
2022/07/03 14:53:11;;;;;;;;;;;;;;;;;;4955609;29;19915;-80
2022/07/03 14:55:37;;;;;;;;;;;;;;;;;;4956786;29;19937;-83
2022/07/03 14:58:03;;;;;;;;;;;;;;;;;;4955845;29;20278;-81
2022/07/03 15:00:29;;;;;;;;;;;;;;;;;;4938833;29;20014;-82
2022/07/03 15:02:54;;;;;;;;;;;;;;;;;;4956487;29;19983;-82
2022/07/03 15:05:20;;;;;;;;;;;;;;;;;;4955995;29;19961;-81
2022/07/03 15:07:45;;;;;;;;;;;;;;;;;;4939583;29;19915;-81
2022/07/03 15:12:50;;;;;;;;;;;;;;;;;;4957096;28;19926;-88
2022/07/03 15:15:24;;;;;;;;;;;;;;;;;;4959533;28;19922;-90
2022/07/03 15:17:50;;;;;;;;;;;;;;;;;;4974030;28;19918;-89
2022/07/03 15:20:18;;;;;;;;;;;;;;;;;;4959094;28;19925;-91
2022/07/03 15:22:43;;;;;;;;;;;;;;;;;;4940862;29;20382;-91
2022/07/03 15:25:09;;;;;;;;;;;;;;;;;;4938119;29;19921;-91
2022/07/03 15:27:41;;;;;;;;;;;;;;;;;;4955962;28;19943;-89
2022/07/03 15:30:08;;;;;;;;;;;;;;;;;;4940618;29;19919;-92
2022/07/03 15:32:39;;;;;;;;;;;;;;;;;;4947259;29;19922;-91
2022/07/03 15:35:04;;;;;;;;;;;;;;;;;;4963698;28;19927;-91
2022/07/03 15:37:30;;;;;;;;;;;;;;;;;;4948030;29;20006;-91
2022/07/03 15:39:56;;;;;;;;;;;;;;;;;;4931727;29;19918;-91
2022/07/03 15:42:42;;;;;;;;;;;;;;;;;;4940239;29;19966;-91
2022/07/03 15:45:08;;;;;;;;;;;;;;;;;;4930838;29;19919;-90
2022/07/03 15:47:35;;;;;;;;;;;;;;;;;;4947688;29;19926;-91
2022/07/03 15:50:03;;;;;;;;;;;;;;;;;;4945723;29;19925;-91
2022/07/03 15:52:29;;;;;;;;;;;;;;;;;;4947355;29;19915;-89
2022/07/03 15:54:56;;;;;;;;;;;;;;;;;;4929629;29;20294;-91
2022/07/03 15:57:25;;;;;;;;;;;;;;;;;;4929980;29;19921;-92
2022/07/03 16:00:08;;;;;;;;;;;;;;;;;;4959420;28;19919;-90
2022/07/03 16:02:36;;;;;;;;;;;;;;;;;;4948015;29;19915;-90
2022/07/03 16:05:03;;;;;;;;;;;;;;;;;;4931035;29;19974;-92
2022/07/03 16:07:29;;;;;;;;;;;;;;;;;;4931290;29;19978;-90
2022/07/03 16:09:57;;;;;;;;;;;;;;;;;;4930153;29;19935;-91
2022/07/03 16:12:23;;;;;;;;;;;;;;;;;;4931485;29;19926;-91
2022/07/03 16:15:00;;;;;;;;;;;;;;;;;;4932901;29;19926;-89
2022/07/03 16:17:27;;;;;;;;;;;;;;;;;;4933815;29;20386;-91
2022/07/03 16:20:12;;;;;;;;;;;;;;;;;;4948270;29;20400;-90
2022/07/03 16:22:41;;;;;;;;;;;;;;;;;;4930898;29;19922;-92
2022/07/03 16:25:09;;;;;;;;;;;;;;;;;;4946189;29;19915;-90
2022/07/03 16:27:35;;;;;;;;;;;;;;;;;;4932418;29;19914;-90
2022/07/03 16:30:09;;;;;;;;;;;;;;;;;;4940880;29;19973;-90
2022/07/03 16:32:40;;;;;;;;;;;;;;;;;;4957639;28;20007;-90
2022/07/03 16:35:05;;;;;;;;;;;;;;;;;;4932609;29;20271;-92
2022/07/03 16:37:34;;;;;;;;;;;;;;;;;;4929209;29;19915;-89
2022/07/03 16:40:20;;;;;;;;;;;;;;;;;;4939555;29;19918;-90
2022/07/03 16:42:46;;;;;;;;;;;;;;;;;;4922188;29;19955;-91
2022/07/03 16:45:20;;;;;;;;;;;;;;;;;;4937253;29;19922;-90
2022/07/03 16:47:51;;;;;;;;;;;;;;;;;;4921823;29;19915;-90
2022/07/03 16:50:17;;;;;;;;;;;;;;;;;;4921544;29;19923;-92
2022/07/03 16:52:50;;;;;;;;;;;;;;;;;;4921596;29;19923;-89
2022/07/03 16:55:18;;;;;;;;;;;;;;;;;;4922634;29;19921;-91